createdAt,value
2022-10-31T00:01:32.358Z,101063.88
2022-10-31T00:04:04.856Z,101064.70
2022-10-31T00:06:37.292Z,101061.41
2022-10-31T00:09:09.431Z,101060.08
2022-10-31T00:11:41.848Z,101059.05
2022-10-31T00:14:14.163Z,101064.66
2022-10-31T00:16:46.288Z,101070.25
2022-10-31T00:19:18.565Z,101067.90
2022-10-31T00:21:50.734Z,101069.32
2022-10-31T00:24:22.894Z,101072.02
2022-10-31T00:26:55.032Z,101074.50
2022-10-31T00:29:27.158Z,101072.21
2022-10-31T00:31:59.335Z,101075.36
2022-10-31T00:34:31.472Z,101075.81
2022-10-31T00:37:03.621Z,101077.19
2022-10-31T00:39:35.860Z,101078.69
2022-10-31T00:42:08.284Z,101077.89
2022-10-31T00:44:40.589Z,101083.17
2022-10-31T00:47:12.717Z,101082.34
2022-10-31T00:49:44.886Z,101085.45
2022-10-31T00:52:17.164Z,101079.67
2022-10-31T00:54:49.395Z,101082.05
2022-10-31T00:57:21.584Z,101083.36
2022-10-31T00:59:53.719Z,101088.80
2022-10-31T01:02:26.076Z,101091.09
2022-10-31T01:04:58.382Z,101094.13
2022-10-31T01:07:30.586Z,101090.05
2022-10-31T01:10:02.716Z,101092.29
2022-10-31T01:12:40.268Z,101092.60
2022-10-31T01:15:16.400Z,101092.67
2022-10-31T01:17:48.565Z,101096.01
2022-10-31T01:20:21.446Z,101099.83
2022-10-31T01:22:53.588Z,101108.23
2022-10-31T01:25:25.743Z,101110.63
2022-10-31T01:27:58.749Z,101114.16
2022-10-31T01:30:31.278Z,101119.64
2022-10-31T01:33:03.425Z,101125.66
2022-10-31T01:35:35.606Z,101126.11
2022-10-31T01:38:07.747Z,101127.48
2022-10-31T01:40:40.039Z,101122.25
2022-10-31T01:43:16.606Z,101128.44
2022-10-31T01:45:53.778Z,101124.47
2022-10-31T01:48:32.410Z,101127.73
2022-10-31T01:51:06.123Z,101126.89
2022-10-31T01:53:39.291Z,101124.93
2022-10-31T01:56:12.777Z,101123.65
2022-10-31T01:58:47.619Z,101123.08
2022-10-31T02:01:20.830Z,101122.00
2022-10-31T02:03:53.590Z,101123.23
2022-10-31T02:06:34.725Z,101124.70
2022-10-31T02:09:08.513Z,101125.10
2022-10-31T02:11:43.491Z,101126.10
2022-10-31T02:14:16.094Z,101124.76
2022-10-31T02:16:48.262Z,101126.92
2022-10-31T02:19:27.693Z,101130.59
2022-10-31T02:22:07.031Z,101132.19
2022-10-31T02:25:04.504Z,101132.86
2022-10-31T02:28:03.782Z,101135.06
2022-10-31T02:30:46.049Z,101144.33
2022-10-31T02:33:30.064Z,101142.85
2022-10-31T02:36:13.777Z,101148.54
2022-10-31T02:39:00.694Z,101150.52
2022-10-31T02:41:40.210Z,101155.11
2022-10-31T02:44:19.054Z,101157.27
2022-10-31T02:46:56.771Z,101161.04
2022-10-31T02:49:36.364Z,101160.12
2022-10-31T02:52:21.073Z,101159.49
2022-10-31T02:54:53.938Z,101159.55
2022-10-31T02:57:31.994Z,101162.34
2022-10-31T03:00:07.092Z,101159.62
2022-10-31T03:03:02.006Z,101158.61
2022-10-31T03:05:55.855Z,101163.07
2022-10-31T03:08:34.392Z,101162.62
2022-10-31T03:11:09.243Z,101167.21
2022-10-31T03:13:47.738Z,101167.50
2022-10-31T03:16:29.823Z,101168.92
2022-10-31T03:19:05.935Z,101170.17
2022-10-31T03:21:42.559Z,101169.80
2022-10-31T03:24:17.357Z,101172.52
2022-10-31T03:26:53.958Z,101173.08
2022-10-31T03:29:30.630Z,101175.67
2022-10-31T03:32:08.440Z,101177.95
2022-10-31T03:34:44.061Z,101180.33
2022-10-31T03:37:20.043Z,101177.76
2022-10-31T03:39:56.205Z,101183.26
2022-10-31T03:42:31.355Z,101184.91
2022-10-31T03:45:08.710Z,101188.02
2022-10-31T03:47:43.349Z,101189.14
2022-10-31T03:50:18.467Z,101184.30
2022-10-31T03:52:54.133Z,101184.46
2022-10-31T03:55:32.450Z,101187.92
2022-10-31T03:58:10.145Z,101187.05
2022-10-31T04:00:46.747Z,101186.61
2022-10-31T04:03:24.328Z,101185.96
2022-10-31T04:05:59.347Z,101186.02
2022-10-31T04:08:36.430Z,101180.41
2022-10-31T04:11:10.746Z,101193.44
2022-10-31T04:13:46.197Z,101195.98
2022-10-31T04:16:20.098Z,101196.66
2022-10-31T04:18:52.587Z,101199.39
2022-10-31T04:21:31.711Z,101197.47
2022-10-31T04:24:03.943Z,101199.64
2022-10-31T04:26:36.315Z,101200.16
2022-10-31T04:29:08.530Z,101197.55
2022-10-31T04:31:40.767Z,101196.23
2022-10-31T04:34:13.055Z,101193.27
2022-10-31T04:36:45.226Z,101197.11
2022-10-31T04:39:19.417Z,101199.20
2022-10-31T04:41:55.098Z,101201.67
2022-10-31T04:44:27.350Z,101205.07
2022-10-31T04:46:59.545Z,101209.05
2022-10-31T04:49:31.757Z,101207.34
2022-10-31T04:52:03.922Z,101202.17
2022-10-31T04:54:36.068Z,101205.23
2022-10-31T04:57:08.319Z,101208.36
2022-10-31T04:59:40.468Z,101210.67
2022-10-31T05:02:12.952Z,101212.98
2022-10-31T05:04:45.172Z,101215.36
2022-10-31T05:07:17.391Z,101218.05
2022-10-31T05:09:49.545Z,101220.36
2022-10-31T05:12:21.753Z,101225.70
2022-10-31T05:14:53.899Z,101225.67
2022-10-31T05:17:26.094Z,101225.34
2022-10-31T05:19:58.376Z,101226.62
2022-10-31T05:22:30.597Z,101225.34
2022-10-31T05:25:02.771Z,101229.40
2022-10-31T05:27:34.978Z,101237.73
2022-10-31T05:30:08.746Z,101238.20
2022-10-31T05:32:44.578Z,101240.78
2022-10-31T05:35:16.339Z,101239.69
2022-10-31T05:37:48.583Z,101240.92
2022-10-31T05:40:22.018Z,101242.64
2022-10-31T05:42:57.851Z,101248.96
2022-10-31T05:45:30.540Z,101252.70
2022-10-31T05:48:04.266Z,101252.58
2022-10-31T05:50:36.956Z,101250.88
2022-10-31T05:53:10.027Z,101253.06
2022-10-31T05:55:42.819Z,101257.05
2022-10-31T05:58:15.087Z,101260.25
2022-10-31T06:00:47.201Z,101264.81
2022-10-31T06:03:19.610Z,101268.83
2022-10-31T06:05:54.981Z,101273.86
2022-10-31T06:08:28.486Z,101271.26
2022-10-31T06:11:00.678Z,101277.61
2022-10-31T06:13:32.905Z,101277.40
2022-10-31T06:16:05.336Z,101281.00
2022-10-31T06:18:37.591Z,101280.86
2022-10-31T06:21:11.533Z,101281.58
2022-10-31T06:23:45.857Z,101284.05
2022-10-31T06:26:18.120Z,101285.24
2022-10-31T06:28:50.279Z,101286.95
2022-10-31T06:31:22.657Z,101280.55
2022-10-31T06:33:54.777Z,101284.10
2022-10-31T06:39:00.115Z,101281.98
2022-10-31T06:41:32.427Z,101279.38
2022-10-31T06:44:08.040Z,101274.05
2022-10-31T06:46:41.284Z,101270.08
2022-10-31T06:49:13.414Z,101275.64
2022-10-31T06:51:45.784Z,101281.30
2022-10-31T06:54:18.046Z,101288.81
2022-10-31T06:56:50.996Z,101294.63
2022-10-31T06:59:23.139Z,101300.25
2022-10-31T07:01:55.533Z,101300.31
2022-10-31T07:04:27.797Z,101298.56
2022-10-31T07:07:00.046Z,101295.91
2022-10-31T07:09:32.258Z,101298.61
2022-10-31T07:12:04.593Z,101298.14
2022-10-31T07:14:36.731Z,101300.02
2022-10-31T07:17:08.865Z,101303.21
2022-10-31T07:19:40.963Z,101303.66
2022-10-31T07:22:13.182Z,101307.40
2022-10-31T07:24:45.443Z,101303.34
2022-10-31T07:27:17.722Z,101296.73
2022-10-31T07:29:49.867Z,101301.88
2022-10-31T07:32:22.167Z,101296.92
2022-10-31T07:34:54.422Z,101298.10
2022-10-31T07:37:29.464Z,101300.31
2022-10-31T07:40:01.754Z,101298.48
2022-10-31T07:42:38.573Z,101302.38
2022-10-31T07:45:13.491Z,101301.49
2022-10-31T07:47:47.486Z,101306.38
2022-10-31T07:50:21.342Z,101311.04
2022-10-31T07:53:02.753Z,101315.05
2022-10-31T07:55:35.650Z,101312.38
2022-10-31T07:58:09.539Z,101314.89
2022-10-31T08:00:43.524Z,101317.23
2022-10-31T08:03:17.825Z,101313.48
2022-10-31T08:05:50.113Z,101317.94
2022-10-31T08:08:22.401Z,101320.67
2022-10-31T08:10:54.589Z,101326.14
2022-10-31T08:13:26.806Z,101321.35
2022-10-31T08:16:04.578Z,101323.54
2022-10-31T08:18:38.571Z,101327.27
2022-10-31T08:21:11.568Z,101326.02
2022-10-31T08:23:43.680Z,101319.83
2022-10-31T08:26:15.868Z,101326.70
2022-10-31T08:28:48.023Z,101325.86
2022-10-31T08:31:20.137Z,101325.92
2022-10-31T08:33:54.398Z,101323.47
2022-10-31T08:36:26.648Z,101327.22
2022-10-31T08:39:01.884Z,101323.96
2022-10-31T08:41:34.502Z,101321.52
2022-10-31T08:44:06.894Z,101319.50
2022-10-31T08:46:39.071Z,101316.66
2022-10-31T08:49:11.286Z,101318.64
2022-10-31T08:51:43.573Z,101320.45
2022-10-31T08:54:15.858Z,101318.89
2022-10-31T08:56:47.999Z,101321.34
2022-10-31T08:59:20.157Z,101322.02
2022-10-31T09:01:52.364Z,101322.63
2022-10-31T09:04:24.750Z,101318.95
2022-10-31T09:09:48.916Z,101318.50
2022-10-31T09:12:21.207Z,101319.65
2022-10-31T09:14:53.338Z,101321.47
2022-10-31T09:17:27.824Z,101321.23
2022-10-31T09:20:00.102Z,101317.84
2022-10-31T09:22:32.343Z,101316.75
2022-10-31T09:25:04.788Z,101314.50
2022-10-31T09:27:36.969Z,101319.24
2022-10-31T09:30:11.263Z,101317.56
2022-10-31T09:32:43.538Z,101319.30
2022-10-31T09:35:17.367Z,101319.33
2022-10-31T09:37:55.682Z,101320.70
2022-10-31T09:40:32.977Z,101315.91
2022-10-31T09:43:15.213Z,101318.53
2022-10-31T09:45:58.581Z,101315.29
2022-10-31T09:48:47.062Z,101316.52
2022-10-31T09:51:22.695Z,101315.34
2022-10-31T09:54:02.630Z,101316.04
2022-10-31T09:56:36.569Z,101313.27
2022-10-31T09:59:14.750Z,101311.14
2022-10-31T10:01:52.863Z,101307.05
2022-10-31T10:04:40.425Z,101305.16
2022-10-31T10:07:22.709Z,101303.68
2022-10-31T10:09:54.870Z,101302.39
2022-10-31T10:12:53.252Z,101300.77
2022-10-31T10:15:57.417Z,101297.71
2022-10-31T10:18:41.412Z,101294.06
2022-10-31T10:21:26.058Z,101291.67
2022-10-31T10:24:07.643Z,101288.48
2022-10-31T10:26:44.973Z,101287.96
2022-10-31T10:29:33.684Z,101288.86
2022-10-31T10:32:13.304Z,101284.36
2022-10-31T10:34:48.566Z,101284.41
2022-10-31T10:37:33.796Z,101279.79
2022-10-31T10:40:16.610Z,101269.62
2022-10-31T10:43:15.299Z,101267.23
2022-10-31T10:46:11.662Z,101265.83
2022-10-31T10:48:51.318Z,101266.81
2022-10-31T10:54:49.092Z,101257.66
2022-10-31T10:57:33.351Z,101258.33
2022-10-31T11:00:21.511Z,101258.77
2022-10-31T11:02:54.516Z,101262.89
2022-10-31T11:05:32.798Z,101260.55
2022-10-31T11:08:05.723Z,101256.73
2022-10-31T11:10:38.821Z,101256.31
2022-10-31T11:13:25.986Z,101254.27
2022-10-31T11:16:05.811Z,101249.31
2022-10-31T11:18:39.828Z,101245.56
2022-10-31T11:21:24.400Z,101247.61
2022-10-31T11:24:06.538Z,101238.56
2022-10-31T11:26:40.504Z,101235.52
2022-10-31T11:29:19.199Z,101239.42
2022-10-31T11:31:54.279Z,101234.80
2022-10-31T11:34:33.103Z,101228.76
2022-10-31T11:37:24.032Z,101224.84
2022-10-31T11:39:58.533Z,101219.60
2022-10-31T11:42:37.287Z,101212.00
2022-10-31T11:45:18.865Z,101212.69
2022-10-31T11:47:59.637Z,101210.31
2022-10-31T11:50:38.277Z,101208.88
2022-10-31T11:53:18.261Z,101207.42
2022-10-31T11:56:02.360Z,101208.93
2022-10-31T11:58:34.722Z,101207.79
2022-10-31T12:01:07.118Z,101206.00
2022-10-31T12:03:50.491Z,101204.66
2022-10-31T12:06:27.106Z,101206.39
2022-10-31T12:08:59.287Z,101205.71
2022-10-31T12:11:48.950Z,101202.80
2022-10-31T12:14:34.325Z,101202.23
2022-10-31T12:17:14.632Z,101199.56
2022-10-31T12:20:00.506Z,101197.19
2022-10-31T12:22:42.250Z,101195.27
2022-10-31T12:25:28.323Z,101197.85
2022-10-31T12:28:09.048Z,101194.72
2022-10-31T12:30:55.547Z,101196.77
2022-10-31T12:33:52.174Z,101197.30
2022-10-31T12:36:39.504Z,101193.95
2022-10-31T12:39:33.144Z,101194.65
2022-10-31T12:42:11.458Z,101193.52
2022-10-31T12:45:03.837Z,101194.55
2022-10-31T12:47:52.910Z,101192.35
2022-10-31T12:50:43.286Z,101197.14
2022-10-31T12:53:39.316Z,101198.27
2022-10-31T12:56:22.422Z,101197.90
2022-10-31T12:58:59.713Z,101197.46
2022-10-31T13:01:37.174Z,101194.98
2022-10-31T13:04:18.402Z,101197.81
2022-10-31T13:06:53.510Z,101194.48
2022-10-31T13:09:31.127Z,101193.87
2022-10-31T13:12:10.165Z,101192.94
2022-10-31T13:14:46.075Z,101195.62
2022-10-31T13:17:27.707Z,101194.29
2022-10-31T13:20:22.105Z,101194.11
2022-10-31T13:22:57.021Z,101195.14
2022-10-31T13:25:35.718Z,101198.51
2022-10-31T13:28:21.071Z,101197.90
2022-10-31T13:30:55.230Z,101197.29
2022-10-31T13:33:32.045Z,101200.33
2022-10-31T13:36:17.564Z,101198.01
2022-10-31T13:38:54.221Z,101198.56
2022-10-31T13:41:41.437Z,101198.17
2022-10-31T13:44:19.896Z,101199.20
2022-10-31T13:46:52.127Z,101200.52
2022-10-31T13:49:39.305Z,101193.84
2022-10-31T13:52:19.503Z,101192.98
2022-10-31T13:54:57.155Z,101193.80
2022-10-31T13:57:37.540Z,101190.94
2022-10-31T14:00:27.991Z,101192.11
2022-10-31T14:03:01.277Z,101191.65
2022-10-31T14:05:35.486Z,101191.69
2022-10-31T14:08:20.302Z,101191.86
2022-10-31T14:10:55.135Z,101194.21
2022-10-31T14:13:33.718Z,101192.96
2022-10-31T14:16:08.341Z,101195.53
2022-10-31T14:18:43.558Z,101194.36
2022-10-31T14:21:29.375Z,101196.89
2022-10-31T14:24:01.531Z,101200.70
2022-10-31T14:26:40.044Z,101201.86
2022-10-31T14:29:32.701Z,101202.13
2022-10-31T14:32:19.377Z,101202.03
2022-10-31T14:34:58.945Z,101205.80
2022-10-31T14:37:50.987Z,101201.28
2022-10-31T14:40:32.796Z,101199.94
2022-10-31T14:43:38.487Z,101198.58
2022-10-31T14:46:19.385Z,101204.59
2022-10-31T14:49:07.214Z,101203.45
2022-10-31T14:51:41.736Z,101203.94
2022-10-31T14:54:19.586Z,101202.33
2022-10-31T14:56:55.598Z,101200.23
2022-10-31T14:59:32.699Z,101203.04
2022-10-31T15:02:17.175Z,101203.34
2022-10-31T15:04:53.487Z,101204.00
2022-10-31T15:07:28.011Z,101205.45
2022-10-31T15:10:02.338Z,101206.80
2022-10-31T15:12:39.164Z,101203.83
2022-10-31T15:15:21.400Z,101208.10
2022-10-31T15:17:56.988Z,101206.96
2022-10-31T15:20:35.703Z,101214.13
2022-10-31T15:23:08.051Z,101212.54
2022-10-31T15:25:40.198Z,101213.30
2022-10-31T15:28:24.710Z,101212.35
2022-10-31T15:30:58.407Z,101213.34
2022-10-31T15:33:38.744Z,101218.42
2022-10-31T15:36:27.707Z,101218.73
2022-10-31T15:39:01.717Z,101218.55
2022-10-31T15:41:37.427Z,101216.23
2022-10-31T15:44:17.877Z,101219.02
2022-10-31T15:46:57.150Z,101228.45
2022-10-31T15:49:36.134Z,101224.52
2022-10-31T15:52:14.084Z,101227.20
2022-10-31T15:54:51.096Z,101237.23
2022-10-31T15:57:23.561Z,101236.08
2022-10-31T15:59:56.014Z,101241.02
2022-10-31T16:02:29.627Z,101239.95
2022-10-31T16:05:03.459Z,101245.08
2022-10-31T16:07:35.920Z,101243.92
2022-10-31T16:10:22.639Z,101246.07
2022-10-31T16:12:55.526Z,101249.74
2022-10-31T16:15:27.839Z,101256.13
2022-10-31T16:18:01.743Z,101257.20
2022-10-31T16:20:38.990Z,101261.14
2022-10-31T16:23:18.881Z,101261.37
2022-10-31T16:25:51.749Z,101264.85
2022-10-31T16:28:30.201Z,101265.67
2022-10-31T16:31:14.873Z,101267.65
2022-10-31T16:33:47.166Z,101270.33
2022-10-31T16:36:39.629Z,101274.45
2022-10-31T16:39:12.143Z,101275.56
2022-10-31T16:41:47.729Z,101276.80
2022-10-31T16:44:19.819Z,101276.60
2022-10-31T16:47:05.482Z,101281.50
2022-10-31T16:49:37.654Z,101281.02
2022-10-31T16:52:10.117Z,101284.13
2022-10-31T16:54:42.318Z,101282.27
2022-10-31T16:57:18.411Z,101282.11
2022-10-31T16:59:55.033Z,101286.55
2022-10-31T17:02:27.494Z,101289.15
2022-10-31T17:04:59.872Z,101288.52
2022-10-31T17:07:32.007Z,101289.67
2022-10-31T17:10:04.160Z,101289.38
2022-10-31T17:12:36.976Z,101295.29
2022-10-31T17:15:16.287Z,101297.87
2022-10-31T17:17:48.509Z,101297.83
2022-10-31T17:20:25.253Z,101300.62
2022-10-31T17:22:59.121Z,101301.23
2022-10-31T17:25:33.206Z,101304.73
2022-10-31T17:28:05.878Z,101304.77
2022-10-31T17:30:39.127Z,101303.98
2022-10-31T17:33:15.227Z,101306.37
2022-10-31T17:35:47.435Z,101310.66
2022-10-31T17:38:19.687Z,101311.73
2022-10-31T17:40:52.032Z,101309.48
2022-10-31T17:43:27.261Z,101316.22
2022-10-31T17:46:02.177Z,101315.34
2022-10-31T17:48:34.870Z,101315.27
2022-10-31T17:51:08.464Z,101317.30
2022-10-31T17:53:40.696Z,101320.86
2022-10-31T17:56:12.896Z,101319.42
2022-10-31T17:58:45.182Z,101318.52
2022-10-31T18:01:20.750Z,101316.20
2022-10-31T18:03:51.331Z,101322.03
2022-10-31T18:06:23.719Z,101323.02
2022-10-31T18:08:58.281Z,101324.00
2022-10-31T18:11:30.506Z,101325.89
2022-10-31T18:14:03.004Z,101331.59
2022-10-31T18:19:16.262Z,101331.40
2022-10-31T18:21:49.125Z,101330.80
2022-10-31T18:24:21.524Z,101333.25
2022-10-31T18:26:53.698Z,101332.56
2022-10-31T18:29:26.041Z,101330.34
2022-10-31T18:31:58.446Z,101332.67
2022-10-31T18:34:30.548Z,101335.35
2022-10-31T18:37:03.196Z,101342.00
2022-10-31T18:39:35.411Z,101341.05
2022-10-31T18:42:07.674Z,101338.77
2022-10-31T18:44:39.937Z,101339.27
2022-10-31T18:47:12.255Z,101339.13
2022-10-31T18:49:44.409Z,101338.19
2022-10-31T18:52:16.550Z,101345.47
2022-10-31T18:54:48.759Z,101343.15
2022-10-31T18:57:21.245Z,101347.02
2022-10-31T18:59:53.517Z,101349.13
2022-10-31T19:02:25.738Z,101347.96
2022-10-31T19:04:58.152Z,101351.08
2022-10-31T19:07:31.076Z,101353.92
2022-10-31T19:10:03.331Z,101355.49
2022-10-31T19:12:36.234Z,101361.39
2022-10-31T19:15:10.222Z,101361.33
2022-10-31T19:17:42.362Z,101362.77
2022-10-31T19:20:15.740Z,101363.20
2022-10-31T19:22:48.217Z,101367.00
2022-10-31T19:25:20.598Z,101370.27
2022-10-31T19:27:52.727Z,101371.18
2022-10-31T19:30:25.015Z,101368.42
2022-10-31T19:32:58.348Z,101372.98
2022-10-31T19:35:30.561Z,101375.46
2022-10-31T19:38:03.141Z,101378.30
2022-10-31T19:40:37.402Z,101381.90
2022-10-31T19:43:09.535Z,101383.48
2022-10-31T19:45:41.799Z,101380.49
2022-10-31T19:48:13.989Z,101382.30
2022-10-31T19:50:46.131Z,101383.81
2022-10-31T19:53:18.292Z,101386.59
2022-10-31T19:55:50.449Z,101390.77
2022-10-31T19:58:22.573Z,101391.66
2022-10-31T20:00:54.957Z,101395.61
2022-10-31T20:03:27.383Z,101398.13
2022-10-31T20:05:59.575Z,101398.45
2022-10-31T20:08:34.560Z,101402.15
2022-10-31T20:11:08.217Z,101401.43
2022-10-31T20:13:40.504Z,101402.94
2022-10-31T20:16:14.385Z,101404.50
2022-10-31T20:18:47.077Z,101406.00
2022-10-31T20:21:21.586Z,101408.16
2022-10-31T20:23:58.457Z,101412.61
2022-10-31T20:26:32.067Z,101413.16
2022-10-31T20:29:05.478Z,101417.35
2022-10-31T20:31:40.108Z,101416.62
2022-10-31T20:34:12.358Z,101421.52
2022-10-31T20:36:44.525Z,101417.70
2022-10-31T20:39:16.696Z,101419.44
2022-10-31T20:41:48.850Z,101420.27
2022-10-31T20:44:21.196Z,101422.20
2022-10-31T20:46:54.218Z,101422.43
2022-10-31T20:49:26.474Z,101422.36
2022-10-31T20:51:58.586Z,101421.80
2022-10-31T20:54:30.799Z,101426.60
2022-10-31T20:57:03.110Z,101427.27
2022-10-31T20:59:35.360Z,101430.53
2022-10-31T21:02:08.687Z,101431.59
2022-10-31T21:04:41.050Z,101434.85
2022-10-31T21:07:13.248Z,101437.54
2022-10-31T21:09:45.457Z,101435.91
2022-10-31T21:12:17.597Z,101438.20
2022-10-31T21:14:49.882Z,101438.58
2022-10-31T21:17:22.001Z,101438.45
2022-10-31T21:19:54.274Z,101438.73
2022-10-31T21:22:26.826Z,101438.61
2022-10-31T21:24:59.058Z,101437.08
2022-10-31T21:27:31.665Z,101441.83
2022-10-31T21:30:04.293Z,101444.39
2022-10-31T21:32:39.460Z,101448.46
2022-10-31T21:35:12.317Z,101448.35
2022-10-31T21:37:44.707Z,101441.90
2022-10-31T21:40:17.550Z,101448.59
2022-10-31T21:42:49.737Z,101450.42
2022-10-31T21:45:22.045Z,101448.07
2022-10-31T21:47:54.242Z,101451.34
2022-10-31T21:50:26.458Z,101454.36
2022-10-31T21:53:18.747Z,101457.83
2022-10-31T21:55:50.896Z,101459.88
2022-10-31T21:58:23.286Z,101464.00
2022-10-31T22:00:55.569Z,101460.08
2022-10-31T22:03:27.782Z,101459.83
2022-10-31T22:06:05.236Z,101461.79
2022-10-31T22:08:37.494Z,101459.86
2022-10-31T22:11:13.757Z,101461.02
2022-10-31T22:13:47.769Z,101461.90
2022-10-31T22:16:21.728Z,101462.56
2022-10-31T22:18:57.215Z,101462.63
2022-10-31T22:21:30.976Z,101461.64
2022-10-31T22:24:05.068Z,101465.40
2022-10-31T22:26:40.680Z,101467.06
2022-10-31T22:29:16.123Z,101467.82
2022-10-31T22:31:52.032Z,101471.37
2022-10-31T22:34:27.542Z,101473.21
2022-10-31T22:36:59.690Z,101476.15
2022-10-31T22:39:31.824Z,101476.64
2022-10-31T22:42:03.985Z,101480.36
2022-10-31T22:44:36.165Z,101478.19
2022-10-31T22:47:08.338Z,101477.71
2022-10-31T22:49:40.617Z,101474.41
2022-10-31T22:52:13.301Z,101476.46
2022-10-31T22:54:45.442Z,101472.41
2022-10-31T22:57:17.666Z,101475.84
2022-10-31T22:59:50.590Z,101474.72
2022-10-31T23:02:23.449Z,101474.93
2022-10-31T23:04:55.747Z,101480.16
2022-10-31T23:07:32.097Z,101477.29
2022-10-31T23:10:05.708Z,101477.45
2022-10-31T23:12:55.331Z,101480.06
2022-10-31T23:15:27.601Z,101479.34
2022-10-31T23:18:01.045Z,101480.70
2022-10-31T23:20:33.345Z,101486.85
2022-10-31T23:23:05.639Z,101489.23
2022-10-31T23:25:55.170Z,101492.77
2022-10-31T23:28:27.339Z,101493.75
2022-10-31T23:30:59.479Z,101494.42
2022-10-31T23:33:32.171Z,101496.39
2022-10-31T23:36:04.439Z,101501.61
2022-10-31T23:38:36.579Z,101501.42
2022-10-31T23:41:08.712Z,101503.26
2022-10-31T23:43:40.953Z,101498.56
2022-10-31T23:46:13.274Z,101503.62
2022-10-31T23:48:48.322Z,101502.75
2022-10-31T23:51:20.569Z,101504.31
2022-10-31T23:53:52.794Z,101502.33
2022-10-31T23:56:25.047Z,101504.36
2022-10-31T23:58:57.288Z,101507.36
